createdAt,value
2018-09-24T00:00:07.060Z,56.07
2018-09-24T00:01:06.870Z,56.46
2018-09-24T00:02:06.845Z,56.37
2018-09-24T00:03:06.854Z,56.46
2018-09-24T00:04:06.823Z,56.07
2018-09-24T00:05:06.838Z,56.27
2018-09-24T00:06:06.807Z,56.46
2018-09-24T00:07:06.788Z,56.27
2018-09-24T00:08:06.799Z,56.27
2018-09-24T00:09:06.766Z,56.16
2018-09-24T00:10:06.755Z,56.27
2018-09-24T00:11:06.760Z,56.27
2018-09-24T00:12:06.737Z,56.27
2018-09-24T00:13:06.741Z,56.27
2018-09-24T00:14:06.710Z,56.46
2018-09-24T00:15:06.699Z,56.16
2018-09-24T00:16:06.692Z,56.16
2018-09-24T00:17:06.688Z,56.57
2018-09-24T00:18:06.680Z,56.27
2018-09-24T00:19:06.654Z,56.37
2018-09-24T00:20:06.649Z,56.16
2018-09-24T00:21:06.635Z,56.57
2018-09-24T00:22:06.621Z,56.16
2018-09-24T00:23:06.638Z,56.16
2018-09-24T00:24:06.599Z,56.27
2018-09-24T00:25:06.588Z,56.20
2018-09-24T00:26:06.590Z,56.37
2018-09-24T00:27:06.571Z,56.37
2018-09-24T00:28:06.578Z,56.37
2018-09-24T00:29:06.559Z,56.37
2018-09-24T00:30:06.532Z,56.29
2018-09-24T00:31:06.521Z,56.49
2018-09-24T00:32:06.509Z,56.27
2018-09-24T00:33:06.526Z,56.20
2018-09-24T00:34:06.490Z,56.20
2018-09-24T00:35:06.486Z,56.46
2018-09-24T00:36:06.464Z,56.37
2018-09-24T00:37:06.454Z,56.46
2018-09-24T00:38:06.460Z,56.27
2018-09-24T00:39:06.439Z,56.46
2018-09-24T00:40:06.440Z,56.46
2018-09-24T00:41:06.422Z,56.16
2018-09-24T00:42:06.399Z,56.09
2018-09-24T00:43:06.411Z,56.39
2018-09-24T00:44:06.377Z,56.49
2018-09-24T00:45:06.368Z,56.16
2018-09-24T00:46:06.353Z,56.29
2018-09-24T00:47:06.355Z,56.49
2018-09-24T00:48:06.349Z,56.20
2018-09-24T00:49:06.321Z,56.27
2018-09-24T00:50:06.312Z,56.29
2018-09-24T00:51:06.307Z,56.09
2018-09-24T00:52:06.289Z,56.29
2018-09-24T00:53:06.303Z,56.29
2018-09-24T00:54:06.272Z,56.39
2018-09-24T00:55:06.266Z,56.49
2018-09-24T00:56:06.254Z,56.39
2018-09-24T00:57:06.245Z,56.20
2018-09-24T00:58:06.239Z,56.20
2018-09-24T00:59:06.221Z,55.89
2018-09-24T01:00:06.201Z,56.29
2018-09-24T01:01:06.191Z,56.29
2018-09-24T01:02:06.192Z,56.29
2018-09-24T01:03:06.195Z,56.20
2018-09-24T01:04:06.159Z,56.29
2018-09-24T01:05:06.156Z,56.29
2018-09-24T01:06:06.139Z,56.29
2018-09-24T01:07:06.139Z,56.20
2018-09-24T01:08:06.128Z,56.20
2018-09-24T01:09:06.103Z,56.20
2018-09-24T01:10:06.094Z,55.89
2018-09-24T01:11:06.091Z,56.09
2018-09-24T01:12:06.070Z,56.09
2018-09-24T01:13:06.074Z,56.09
2018-09-24T01:14:06.048Z,55.89
2018-09-24T01:15:06.037Z,56.49
2018-09-24T01:16:06.026Z,55.49
2018-09-24T01:17:06.025Z,55.99
2018-09-24T01:18:06.031Z,56.39
2018-09-24T01:19:06.006Z,56.20
2018-09-24T01:20:05.984Z,56.29
2018-09-24T01:21:05.970Z,56.29
2018-09-24T01:22:05.959Z,56.29
2018-09-24T01:23:05.958Z,56.20
2018-09-24T01:24:05.952Z,56.09
2018-09-24T01:25:05.926Z,55.99
2018-09-24T01:26:05.923Z,56.29
2018-09-24T01:27:05.904Z,56.32
2018-09-24T01:28:05.894Z,56.29
2018-09-24T01:29:05.909Z,56.29
2018-09-24T01:30:05.878Z,56.29
2018-09-24T01:31:05.862Z,55.99
2018-09-24T01:32:05.856Z,56.49
2018-09-24T01:33:05.837Z,56.20
2018-09-24T01:34:05.844Z,55.89
2018-09-24T01:35:05.836Z,56.39
2018-09-24T01:36:05.813Z,56.12
2018-09-24T01:37:05.792Z,56.49
2018-09-24T01:38:05.780Z,56.32
2018-09-24T01:39:05.802Z,56.32
2018-09-24T01:40:05.761Z,56.29
2018-09-24T01:41:05.768Z,56.20
2018-09-24T01:42:05.738Z,55.99
2018-09-24T01:43:05.727Z,56.09
2018-09-24T01:44:05.732Z,55.99
2018-09-24T01:45:05.712Z,56.20
2018-09-24T01:46:05.723Z,56.12
2018-09-24T01:47:05.700Z,56.22
2018-09-24T01:48:05.672Z,55.89
2018-09-24T01:49:05.676Z,56.22
2018-09-24T01:50:05.651Z,56.12
2018-09-24T01:51:05.640Z,56.22
2018-09-24T01:52:05.634Z,56.29
2018-09-24T01:53:05.640Z,56.09
2018-09-24T01:54:05.623Z,56.09
2018-09-24T01:55:05.607Z,56.32
2018-09-24T01:56:05.586Z,56.20
2018-09-24T01:57:05.577Z,56.20
2018-09-24T01:58:05.584Z,56.22
2018-09-24T01:59:05.581Z,56.29
2018-09-24T02:00:05.543Z,56.12
2018-09-24T02:01:05.534Z,55.52
2018-09-24T02:02:05.527Z,56.32
2018-09-24T02:03:05.511Z,56.22
2018-09-24T02:04:05.526Z,56.20
2018-09-24T02:05:05.489Z,56.22
2018-09-24T02:06:05.479Z,56.20
2018-09-24T02:07:05.468Z,55.99
2018-09-24T02:08:05.459Z,56.32
2018-09-24T02:09:05.465Z,56.02
2018-09-24T02:10:05.456Z,56.22
2018-09-24T02:11:05.424Z,56.09
2018-09-24T02:12:05.414Z,56.22
2018-09-24T02:13:05.404Z,56.32
2018-09-24T02:14:05.413Z,56.22
2018-09-24T02:15:05.389Z,56.22
2018-09-24T02:16:05.386Z,56.22
2018-09-24T02:17:05.360Z,56.02
2018-09-24T02:18:05.349Z,56.22
2018-09-24T02:19:05.356Z,56.22
2018-09-24T02:20:05.330Z,55.62
2018-09-24T02:21:05.317Z,56.02
2018-09-24T02:22:05.317Z,56.32
2018-09-24T02:23:05.298Z,56.52
2018-09-24T02:24:05.307Z,55.92
2018-09-24T02:25:05.280Z,56.12
2018-09-24T02:26:05.267Z,56.22
2018-09-24T02:27:05.252Z,56.12
2018-09-24T02:28:05.249Z,56.02
2018-09-24T02:29:05.257Z,56.12
2018-09-24T02:30:05.223Z,56.22
2018-09-24T02:31:05.219Z,56.02
2018-09-24T02:32:05.211Z,56.02
2018-09-24T02:33:05.185Z,56.02
2018-09-24T02:34:05.175Z,56.12
2018-09-24T02:35:05.190Z,56.02
2018-09-24T02:36:05.153Z,56.02
2018-09-24T02:37:05.142Z,55.82
2018-09-24T02:38:05.131Z,55.92
2018-09-24T02:39:05.119Z,56.02
2018-09-24T02:40:05.133Z,55.72
2018-09-24T02:41:05.106Z,56.02
2018-09-24T02:42:05.086Z,55.72
2018-09-24T02:43:05.077Z,55.92
2018-09-24T02:44:05.065Z,55.72
2018-09-24T02:45:05.069Z,55.82
2018-09-24T02:46:05.043Z,55.82
2018-09-24T02:47:05.046Z,55.72
2018-09-24T02:48:05.023Z,55.72
2018-09-24T02:49:05.010Z,55.62
2018-09-24T02:50:05.014Z,55.62
2018-09-24T02:51:04.989Z,55.82
2018-09-24T02:52:04.980Z,55.72
2018-09-24T02:53:04.975Z,56.02
2018-09-24T02:54:04.963Z,55.82
2018-09-24T02:55:04.966Z,55.82
2018-09-24T02:56:04.936Z,56.02
2018-09-24T02:57:04.925Z,55.82
2018-09-24T02:58:04.924Z,55.82
2018-09-24T02:59:04.909Z,55.72
2018-09-24T03:00:04.906Z,56.22
2018-09-24T03:01:04.910Z,56.02
2018-09-24T03:02:04.871Z,56.05
2018-09-24T03:03:04.862Z,56.02
2018-09-24T03:04:04.848Z,56.12
2018-09-24T03:05:04.861Z,56.12
2018-09-24T03:06:04.838Z,56.02
2018-09-24T03:07:04.818Z,56.02
2018-09-24T03:08:04.813Z,56.12
2018-09-24T03:09:04.801Z,55.94
2018-09-24T03:10:04.801Z,56.02
2018-09-24T03:11:04.781Z,55.94
2018-09-24T03:12:04.761Z,56.12
2018-09-24T03:13:04.751Z,55.24
2018-09-24T03:14:04.741Z,56.02
2018-09-24T03:15:04.746Z,55.22
2018-09-24T03:16:04.719Z,55.24
2018-09-24T03:17:04.719Z,55.42
2018-09-24T03:18:04.702Z,55.35
2018-09-24T03:19:04.689Z,55.35
2018-09-24T03:20:04.691Z,55.32
2018-09-24T03:21:04.676Z,55.92
2018-09-24T03:22:04.657Z,55.52
2018-09-24T03:23:04.652Z,55.55
2018-09-24T03:24:04.648Z,55.44
2018-09-24T03:25:04.636Z,55.52
2018-09-24T03:26:04.616Z,55.55
2018-09-24T03:27:04.600Z,55.44
2018-09-24T03:28:04.590Z,55.44
2018-09-24T03:29:04.592Z,55.55
2018-09-24T03:30:04.591Z,55.65
2018-09-24T03:31:04.557Z,55.65
2018-09-24T03:32:04.546Z,55.82
2018-09-24T03:33:04.543Z,55.94
2018-09-24T03:34:04.531Z,55.55
2018-09-24T03:35:04.545Z,55.85
2018-09-24T03:36:04.512Z,55.82
2018-09-24T03:37:04.492Z,55.85
2018-09-24T03:38:04.481Z,55.65
2018-09-24T03:39:04.471Z,55.94
2018-09-24T03:40:04.476Z,55.85
2018-09-24T03:41:04.457Z,55.55
2018-09-24T03:42:04.488Z,55.85
2018-09-24T03:43:04.430Z,55.44
2018-09-24T03:44:04.416Z,55.65
2018-09-24T03:45:04.425Z,55.65
2018-09-24T03:46:04.396Z,55.55
2018-09-24T03:47:04.399Z,55.94
2018-09-24T03:48:04.372Z,55.65
2018-09-24T03:49:04.362Z,55.65
2018-09-24T03:50:04.368Z,55.65
2018-09-24T03:51:04.341Z,55.74
2018-09-24T03:52:04.331Z,55.94
2018-09-24T03:53:04.337Z,55.65
2018-09-24T03:54:04.308Z,55.65
2018-09-24T03:55:04.330Z,55.74
2018-09-24T03:56:04.287Z,55.65
2018-09-24T03:57:04.279Z,55.94
2018-09-24T03:58:04.266Z,55.94
2018-09-24T03:59:04.359Z,55.94
2018-09-24T04:00:04.249Z,55.65
2018-09-24T04:01:04.255Z,55.94
2018-09-24T04:02:04.232Z,55.94
2018-09-24T04:03:04.213Z,55.94
2018-09-24T04:04:04.203Z,55.85
2018-09-24T04:05:04.207Z,55.94
2018-09-24T04:06:04.199Z,55.94
2018-09-24T04:07:04.169Z,55.85
2018-09-24T04:08:04.161Z,55.65
2018-09-24T04:09:04.147Z,56.15
2018-09-24T04:10:04.201Z,56.15
2018-09-24T04:11:04.152Z,56.05
2018-09-24T04:12:04.118Z,56.05
2018-09-24T04:13:04.107Z,56.05
2018-09-24T04:14:04.097Z,55.85
2018-09-24T04:15:04.085Z,56.15
2018-09-24T04:16:04.094Z,55.85
2018-09-24T04:17:04.088Z,55.94
2018-09-24T04:18:04.055Z,55.85
2018-09-24T04:19:04.043Z,55.15
2018-09-24T04:20:04.029Z,55.35
2018-09-24T04:21:04.038Z,55.65
2018-09-24T04:22:04.008Z,55.35
2018-09-24T04:23:04.009Z,55.74
2018-09-24T04:24:03.991Z,55.74
2018-09-24T04:25:03.975Z,55.65
2018-09-24T04:26:04.009Z,55.35
2018-09-24T04:27:03.961Z,55.05
2018-09-24T04:28:03.943Z,55.15
2018-09-24T04:29:03.957Z,54.85
2018-09-24T04:30:03.927Z,54.35
2018-09-24T04:31:03.938Z,54.44
2018-09-24T04:32:03.902Z,54.64
2018-09-24T04:33:03.896Z,54.85
2018-09-24T04:34:03.888Z,53.85
2018-09-24T04:35:03.887Z,53.94
2018-09-24T04:36:03.874Z,54.14
2018-09-24T04:37:03.849Z,54.27
2018-09-24T04:38:03.836Z,54.14
2018-09-24T04:39:03.826Z,54.24
2018-09-24T04:40:03.816Z,54.24
2018-09-24T04:41:03.829Z,53.57
2018-09-24T04:42:03.793Z,53.87
2018-09-24T04:43:03.784Z,53.97
2018-09-24T04:44:03.771Z,53.67
2018-09-24T04:45:03.766Z,53.67
2018-09-24T04:46:03.766Z,53.77
2018-09-24T04:47:03.749Z,53.77
2018-09-24T04:48:03.730Z,53.77
2018-09-24T04:49:03.732Z,52.47
2018-09-24T04:50:03.709Z,52.57
2018-09-24T04:51:03.725Z,52.87
2018-09-24T04:52:03.692Z,52.87
2018-09-24T04:53:03.696Z,52.37
2018-09-24T04:54:03.663Z,52.37
2018-09-24T04:55:03.653Z,52.37
2018-09-24T04:56:03.644Z,52.47
2018-09-24T04:57:03.647Z,52.47
2018-09-24T04:58:03.627Z,52.37
2018-09-24T04:59:03.628Z,52.27
2018-09-24T05:00:03.600Z,52.27
2018-09-24T05:01:03.588Z,52.07
2018-09-24T05:02:03.593Z,51.87
2018-09-24T05:03:03.575Z,52.17
2018-09-24T05:04:03.572Z,51.79
2018-09-24T05:05:03.546Z,52.09
2018-09-24T05:06:03.535Z,51.77
2018-09-24T05:07:03.538Z,51.79
2018-09-24T05:08:03.511Z,51.79
2018-09-24T05:09:03.504Z,51.37
2018-09-24T05:10:03.525Z,51.59
2018-09-24T05:11:03.483Z,51.69
2018-09-24T05:12:03.484Z,51.59
2018-09-24T05:13:03.458Z,51.49
2018-09-24T05:14:03.448Z,51.29
2018-09-24T05:15:03.441Z,50.99
2018-09-24T05:16:03.498Z,50.29
2018-09-24T05:17:03.432Z,50.69
2018-09-24T05:18:03.404Z,50.69
2018-09-24T05:19:03.412Z,50.39
2018-09-24T05:20:03.382Z,50.79
2018-09-24T05:21:03.371Z,50.19
2018-09-24T05:22:03.390Z,50.19
2018-09-24T05:23:03.348Z,50.19
2018-09-24T05:24:03.339Z,50.59
2018-09-24T05:25:03.328Z,50.59
2018-09-24T05:26:03.322Z,50.39
2018-09-24T05:27:03.331Z,51.09
2018-09-24T05:28:03.301Z,50.39
2018-09-24T05:29:03.293Z,50.09
2018-09-24T05:30:03.278Z,50.21
2018-09-24T05:31:03.266Z,49.81
2018-09-24T05:32:03.277Z,50.31
2018-09-24T05:33:03.237Z,50.21
2018-09-24T05:34:03.230Z,50.21
2018-09-24T05:35:03.230Z,49.91
2018-09-24T05:36:03.203Z,50.11
2018-09-24T05:37:03.198Z,49.91
2018-09-24T05:38:03.217Z,50.01
2018-09-24T05:39:03.171Z,49.81
2018-09-24T05:40:03.160Z,50.01
2018-09-24T05:41:03.159Z,49.91
2018-09-24T05:42:03.138Z,50.01
2018-09-24T05:43:03.143Z,50.11
2018-09-24T05:44:03.116Z,49.81
2018-09-24T05:45:03.104Z,49.91
2018-09-24T05:46:03.094Z,49.91
2018-09-24T05:47:03.093Z,49.71
2018-09-24T05:48:03.120Z,50.11
2018-09-24T05:49:03.061Z,49.61
2018-09-24T05:50:03.050Z,50.01
2018-09-24T05:51:03.039Z,49.31
2018-09-24T05:52:03.026Z,50.11
2018-09-24T05:53:03.039Z,49.91
2018-09-24T05:54:03.010Z,49.31
2018-09-24T05:55:02.995Z,49.41
2018-09-24T05:56:02.983Z,49.81
2018-09-24T05:57:02.971Z,50.11
2018-09-24T05:58:02.977Z,50.11
2018-09-24T05:59:02.961Z,49.31
2018-09-24T06:00:02.938Z,50.11
2018-09-24T06:01:02.934Z,49.91
2018-09-24T06:02:02.915Z,49.31
2018-09-24T06:03:02.925Z,49.31
2018-09-24T06:04:02.895Z,49.61
2018-09-24T06:05:02.904Z,49.41
2018-09-24T06:06:02.874Z,49.91
2018-09-24T06:07:02.867Z,50.01
2018-09-24T06:08:02.879Z,49.61
2018-09-24T06:09:02.844Z,49.21
2018-09-24T06:10:02.832Z,49.81
2018-09-24T06:11:02.820Z,49.71
2018-09-24T06:12:02.805Z,49.81
2018-09-24T06:13:02.802Z,49.71
2018-09-24T06:14:02.813Z,49.81
2018-09-24T06:15:02.779Z,49.91
2018-09-24T06:16:02.765Z,49.51
2018-09-24T06:17:02.753Z,49.51
2018-09-24T06:18:02.740Z,50.11
2018-09-24T06:19:02.812Z,49.81
2018-09-24T06:20:02.719Z,50.01
2018-09-24T06:21:02.710Z,50.11
2018-09-24T06:22:02.696Z,50.01
2018-09-24T06:23:02.686Z,50.01
2018-09-24T06:24:02.688Z,50.01
2018-09-24T06:25:02.670Z,49.71
2018-09-24T06:26:02.650Z,49.71
2018-09-24T06:27:02.653Z,50.21
2018-09-24T06:28:02.632Z,50.01
2018-09-24T06:29:02.632Z,49.91
2018-09-24T06:30:02.609Z,50.21
2018-09-24T06:31:02.606Z,49.81
2018-09-24T06:32:02.592Z,49.91
2018-09-24T06:33:02.575Z,49.81
2018-09-24T06:34:02.577Z,50.11
2018-09-24T06:35:02.553Z,49.81
2018-09-24T06:36:02.559Z,49.81
2018-09-24T06:37:02.530Z,50.01
2018-09-24T06:38:02.521Z,50.01
2018-09-24T06:39:02.530Z,50.01
2018-09-24T06:40:02.496Z,49.81
2018-09-24T06:41:02.526Z,49.81
2018-09-24T06:42:02.481Z,49.91
2018-09-24T06:43:02.470Z,49.89
2018-09-24T06:44:02.474Z,49.91
2018-09-24T06:45:02.442Z,49.91
2018-09-24T06:46:02.431Z,49.91
2018-09-24T06:47:02.419Z,49.71
2018-09-24T06:48:02.419Z,49.71
2018-09-24T06:49:02.429Z,50.01
2018-09-24T06:50:02.385Z,49.71
2018-09-24T06:51:02.380Z,49.71
2018-09-24T06:52:02.363Z,49.91
2018-09-24T06:53:02.354Z,49.81
2018-09-24T06:54:02.350Z,50.01
2018-09-24T06:55:02.348Z,50.21
2018-09-24T06:56:02.321Z,49.71
2018-09-24T06:57:02.309Z,50.21
2018-09-24T06:58:02.299Z,49.51
2018-09-24T06:59:02.289Z,49.51
2018-09-24T07:00:02.318Z,49.61
2018-09-24T07:01:02.264Z,49.61
2018-09-24T07:02:02.255Z,49.71
2018-09-24T07:03:02.244Z,49.61
2018-09-24T07:04:02.233Z,49.61
2018-09-24T07:05:02.236Z,49.71
2018-09-24T07:06:02.229Z,49.51
2018-09-24T07:07:02.201Z,49.61
2018-09-24T07:08:02.189Z,49.51
2018-09-24T07:09:02.181Z,49.71
2018-09-24T07:10:02.181Z,50.21
2018-09-24T07:11:02.161Z,49.61
2018-09-24T07:12:02.148Z,49.91
2018-09-24T07:13:02.141Z,49.51
2018-09-24T07:14:02.123Z,50.11
2018-09-24T07:15:02.131Z,50.21
2018-09-24T07:16:02.100Z,49.81
2018-09-24T07:17:02.095Z,49.61
2018-09-24T07:18:02.080Z,49.71
2018-09-24T07:19:02.077Z,49.61
2018-09-24T07:20:02.076Z,49.61
2018-09-24T07:21:02.046Z,49.71
2018-09-24T07:22:02.035Z,49.81
2018-09-24T07:23:02.038Z,49.61
2018-09-24T07:24:02.013Z,49.61
2018-09-24T07:25:02.021Z,49.71
2018-09-24T07:26:01.999Z,49.71
2018-09-24T07:27:01.981Z,49.71
2018-09-24T07:28:02.102Z,49.51
2018-09-24T07:29:01.965Z,50.31
2018-09-24T07:30:01.968Z,49.91
2018-09-24T07:31:01.937Z,49.71
2018-09-24T07:32:01.938Z,49.71
2018-09-24T07:33:01.960Z,49.51
2018-09-24T07:34:01.917Z,49.71
2018-09-24T07:35:01.895Z,49.61
2018-09-24T07:36:01.897Z,49.61
2018-09-24T07:37:01.875Z,49.61
2018-09-24T07:38:01.877Z,49.61
2018-09-24T07:39:01.854Z,50.01
2018-09-24T07:40:01.840Z,50.01
2018-09-24T07:41:01.842Z,50.01
2018-09-24T07:42:01.816Z,50.01
2018-09-24T07:43:01.881Z,49.91
2018-09-24T07:44:01.795Z,50.01
2018-09-24T07:45:01.797Z,49.89
2018-09-24T07:46:01.795Z,50.01
2018-09-24T07:47:01.761Z,49.91
2018-09-24T07:48:01.753Z,49.79
2018-09-24T07:49:01.745Z,49.81
2018-09-24T07:50:01.732Z,49.99
2018-09-24T07:51:01.736Z,49.79
2018-09-24T07:52:01.715Z,49.71
2018-09-24T07:53:01.695Z,50.19
2018-09-24T07:54:01.689Z,49.99
2018-09-24T07:55:01.675Z,49.89
2018-09-24T07:56:01.679Z,49.99
2018-09-24T07:57:01.654Z,49.99
2018-09-24T07:58:01.651Z,49.89
2018-09-24T07:59:01.637Z,49.79
2018-09-24T08:00:01.619Z,49.99
2018-09-24T08:01:01.697Z,50.01
2018-09-24T08:02:01.605Z,49.69
2018-09-24T08:03:01.588Z,49.99
2018-09-24T08:04:01.585Z,49.79
2018-09-24T08:05:01.566Z,49.79
2018-09-24T08:06:01.569Z,49.29
2018-09-24T08:07:01.554Z,49.89
2018-09-24T08:08:01.532Z,49.79
2018-09-24T08:09:01.522Z,49.49
2018-09-24T08:10:01.523Z,49.49
2018-09-24T08:11:01.536Z,49.69
2018-09-24T08:12:01.489Z,49.69
2018-09-24T08:13:01.550Z,49.66
2018-09-24T08:14:01.468Z,49.66
2018-09-24T08:15:01.460Z,49.29
2018-09-24T08:16:01.462Z,49.29
2018-09-24T08:17:01.441Z,49.69
2018-09-24T08:18:01.440Z,49.37
2018-09-24T08:19:01.411Z,49.39
2018-09-24T08:20:01.401Z,49.26
2018-09-24T08:21:01.453Z,49.37
2018-09-24T08:22:01.398Z,49.79
2018-09-24T08:23:01.389Z,49.76
2018-09-24T08:24:01.379Z,50.09
2018-09-24T08:25:01.344Z,49.58
2018-09-24T08:26:01.335Z,49.57
2018-09-24T08:27:01.346Z,49.46
2018-09-24T08:28:01.314Z,49.49
2018-09-24T08:29:01.336Z,49.46
2018-09-24T08:30:01.308Z,49.16
2018-09-24T08:31:01.278Z,49.26
2018-09-24T08:32:01.284Z,48.86
2018-09-24T08:33:01.265Z,48.96
2018-09-24T08:34:01.250Z,48.96
2018-09-24T08:35:01.241Z,48.86
2018-09-24T08:36:01.224Z,49.07
2018-09-24T08:37:01.230Z,49.46
2018-09-24T08:38:01.211Z,48.86
2018-09-24T08:39:01.207Z,49.46
2018-09-24T08:40:01.192Z,49.16
2018-09-24T08:41:01.175Z,49.46
2018-09-24T08:42:01.191Z,49.76
2018-09-24T08:43:01.151Z,49.79
2018-09-24T08:44:01.170Z,49.96
2018-09-24T08:45:01.139Z,49.96
2018-09-24T08:46:01.123Z,49.49
2018-09-24T08:47:01.128Z,49.49
2018-09-24T08:48:01.095Z,49.39
2018-09-24T08:49:01.085Z,49.46
2018-09-24T08:50:01.073Z,49.16
2018-09-24T08:51:01.069Z,49.39
2018-09-24T08:52:01.067Z,49.66
2018-09-24T08:53:01.042Z,49.46
2018-09-24T08:54:01.029Z,49.16
2018-09-24T08:55:01.023Z,49.07
2018-09-24T08:56:01.008Z,49.26
2018-09-24T08:57:01.081Z,49.07
2018-09-24T08:58:00.995Z,49.16
2018-09-24T08:59:01.002Z,49.07
2018-09-24T09:00:00.966Z,48.86
2018-09-24T09:01:00.956Z,49.07
2018-09-24T09:02:00.950Z,48.86
2018-09-24T09:03:00.959Z,48.86
2018-09-24T09:04:00.948Z,48.84
2018-09-24T09:05:00.917Z,49.07
2018-09-24T09:06:00.902Z,48.96
2018-09-24T09:07:00.890Z,48.57
2018-09-24T09:08:00.895Z,48.84
2018-09-24T09:09:00.874Z,49.37
2018-09-24T09:10:00.888Z,49.16
2018-09-24T09:11:00.851Z,49.07
2018-09-24T09:12:00.838Z,49.16
2018-09-24T09:13:00.848Z,49.16
2018-09-24T09:14:00.817Z,48.96
2018-09-24T09:15:00.813Z,49.16
2018-09-24T09:16:00.820Z,48.96
2018-09-24T09:17:00.785Z,49.07
2018-09-24T09:18:00.787Z,49.57
2018-09-24T09:19:00.767Z,49.46
2018-09-24T09:20:00.758Z,49.26
2018-09-24T09:21:00.754Z,49.76
2018-09-24T09:22:00.730Z,49.37
2018-09-24T09:23:00.736Z,49.26
2018-09-24T09:24:00.768Z,49.16
2018-09-24T09:25:00.697Z,49.46
2018-09-24T09:26:00.704Z,49.96
2018-09-24T09:27:00.681Z,49.26
2018-09-24T09:28:00.680Z,49.87
2018-09-24T09:29:00.656Z,49.46
2018-09-24T09:30:00.645Z,49.46
2018-09-24T09:31:00.635Z,49.46
2018-09-24T09:32:00.639Z,49.46
2018-09-24T09:33:00.636Z,49.07
2018-09-24T09:34:00.601Z,49.07
2018-09-24T09:35:00.591Z,49.07
2018-09-24T09:36:00.588Z,49.14
2018-09-24T09:37:00.575Z,49.26
2018-09-24T09:38:00.592Z,49.07
2018-09-24T09:39:00.551Z,49.07
2018-09-24T09:40:00.544Z,49.16
2018-09-24T09:41:00.532Z,49.14
2018-09-24T09:42:00.515Z,48.84
2018-09-24T09:43:00.534Z,48.84
2018-09-24T09:44:00.498Z,48.57
2018-09-24T09:45:00.481Z,48.54
2018-09-24T09:46:00.476Z,48.54
2018-09-24T09:47:00.464Z,48.54
2018-09-24T09:48:00.452Z,48.74
2018-09-24T09:49:00.460Z,48.54
2018-09-24T09:50:00.435Z,48.64
2018-09-24T09:51:00.422Z,49.34
2018-09-24T09:52:00.408Z,49.14
2018-09-24T09:53:00.405Z,49.14
2018-09-24T09:54:00.401Z,48.54
2018-09-24T09:55:00.376Z,48.64
2018-09-24T09:56:00.374Z,48.64
2018-09-24T09:57:00.357Z,48.54
2018-09-24T09:58:00.345Z,49.34
2018-09-24T09:59:00.385Z,49.04
2018-09-24T10:00:00.328Z,49.04
2018-09-24T10:01:00.312Z,49.04
2018-09-24T10:02:00.308Z,48.84
2018-09-24T10:03:00.291Z,48.94
2018-09-24T10:04:00.303Z,48.64
2018-09-24T10:05:00.270Z,48.94
2018-09-24T10:06:00.268Z,48.74
2018-09-24T10:07:00.248Z,48.84
2018-09-24T10:08:00.239Z,49.14
2018-09-24T10:09:00.252Z,48.84
2018-09-24T10:10:00.222Z,49.04
2018-09-24T10:11:00.231Z,49.14
2018-09-24T10:12:00.197Z,49.14
2018-09-24T10:13:00.183Z,49.14
2018-09-24T10:14:00.190Z,49.04
2018-09-24T10:15:00.185Z,48.94
2018-09-24T10:16:00.150Z,49.04
2018-09-24T10:17:00.142Z,48.94
2018-09-24T10:18:00.130Z,49.14
2018-09-24T10:19:00.135Z,49.04
2018-09-24T10:20:00.123Z,49.04
2018-09-24T10:21:00.109Z,48.74
2018-09-24T10:22:00.103Z,48.64
2018-09-24T10:23:00.081Z,48.74
2018-09-24T10:24:00.081Z,48.64
2018-09-24T10:25:00.053Z,48.61
2018-09-24T10:26:00.045Z,48.64
2018-09-24T10:27:00.048Z,48.44
2018-09-24T10:28:00.048Z,48.52
2018-09-24T10:29:00.047Z,48.64
2018-09-24T10:29:59.999Z,48.82
2018-09-24T10:30:59.989Z,48.52
2018-09-24T10:31:59.983Z,48.72
2018-09-24T10:32:59.975Z,48.61
2018-09-24T10:33:59.984Z,48.72
2018-09-24T10:34:59.966Z,48.72
2018-09-24T10:35:59.934Z,48.72
2018-09-24T10:36:59.922Z,48.61
2018-09-24T10:37:59.915Z,48.72
2018-09-24T10:38:59.916Z,49.11
2018-09-24T10:39:59.971Z,49.22
2018-09-24T10:40:59.878Z,49.02
2018-09-24T10:41:59.867Z,49.52
2018-09-24T10:42:59.857Z,49.11
2018-09-24T10:43:59.847Z,49.54
2018-09-24T10:44:59.854Z,49.52
2018-09-24T10:45:59.886Z,49.82
2018-09-24T10:46:59.812Z,49.54
2018-09-24T10:47:59.802Z,49.54
2018-09-24T10:48:59.799Z,49.34
2018-09-24T10:49:59.805Z,49.54
2018-09-24T10:50:59.773Z,49.84
2018-09-24T10:51:59.766Z,49.34
2018-09-24T10:52:59.822Z,49.82
2018-09-24T10:53:59.737Z,49.64
2018-09-24T10:54:59.749Z,50.04
2018-09-24T10:55:59.719Z,49.74
2018-09-24T10:56:59.706Z,49.52
2018-09-24T10:57:59.701Z,49.41
2018-09-24T10:58:59.683Z,49.11
2018-09-24T10:59:59.686Z,49.32
2018-09-24T11:00:59.661Z,49.11
2018-09-24T11:01:59.654Z,48.92
2018-09-24T11:02:59.638Z,48.92
2018-09-24T11:03:59.638Z,49.11
2018-09-24T11:04:59.646Z,49.11
2018-09-24T11:05:59.612Z,48.82
2018-09-24T11:06:59.598Z,48.92
2018-09-24T11:07:59.585Z,49.11
2018-09-24T11:08:59.576Z,49.02
2018-09-24T11:09:59.567Z,49.02
2018-09-24T11:10:59.569Z,48.52
2018-09-24T11:11:59.540Z,48.82
2018-09-24T11:12:59.534Z,48.72
2018-09-24T11:13:59.521Z,48.72
2018-09-24T11:14:59.507Z,48.61
2018-09-24T11:15:59.722Z,48.72
2018-09-24T11:16:59.635Z,48.72
2018-09-24T11:17:59.514Z,48.99
2018-09-24T11:18:59.467Z,48.72
2018-09-24T11:19:59.460Z,48.60
2018-09-24T11:20:59.456Z,48.60
2018-09-24T11:21:59.464Z,48.61
2018-09-24T11:22:59.420Z,48.49
2018-09-24T11:23:59.417Z,48.72
2018-09-24T11:24:59.401Z,48.69
2018-09-24T11:25:59.406Z,48.69
2018-09-24T11:26:59.376Z,48.19
2018-09-24T11:27:59.364Z,48.99
2018-09-24T11:28:59.362Z,48.79
2018-09-24T11:29:59.352Z,48.49
2018-09-24T11:30:59.346Z,48.61
2018-09-24T11:31:59.322Z,48.19
2018-09-24T11:32:59.311Z,48.39
2018-09-24T11:33:59.309Z,48.19
2018-09-24T11:34:59.289Z,48.61
2018-09-24T11:35:59.291Z,48.42
2018-09-24T11:36:59.265Z,48.61
2018-09-24T11:37:59.276Z,48.22
2018-09-24T11:38:59.243Z,48.39
2018-09-24T11:39:59.238Z,48.52
2018-09-24T11:40:59.239Z,48.39
2018-09-24T11:41:59.213Z,48.25
2018-09-24T11:42:59.202Z,47.35
2018-09-24T11:43:59.191Z,46.53
2018-09-24T11:44:59.182Z,46.50
2018-09-24T11:45:59.197Z,45.68
2018-09-24T11:46:59.278Z,45.06
2018-09-24T11:47:59.146Z,44.67
2018-09-24T11:48:59.138Z,44.15
2018-09-24T11:49:59.123Z,43.93
2018-09-24T11:50:59.109Z,43.80
2018-09-24T11:51:59.114Z,43.38
2018-09-24T11:52:59.095Z,43.46
2018-09-24T11:53:59.084Z,42.65
2018-09-24T11:54:59.066Z,42.57
2018-09-24T11:55:59.059Z,42.25
2018-09-24T11:56:59.072Z,42.55
2018-09-24T11:57:59.032Z,42.35
2018-09-24T11:58:59.023Z,42.15
2018-09-24T11:59:59.024Z,42.45
2018-09-24T12:00:58.998Z,41.25
2018-09-24T12:01:59.011Z,42.07
2018-09-24T12:02:58.984Z,42.89
2018-09-24T12:03:58.968Z,43.21
2018-09-24T12:04:58.953Z,43.71
2018-09-24T12:05:58.942Z,44.12
2018-09-24T12:06:58.966Z,43.75
2018-09-24T12:07:58.924Z,43.85
2018-09-24T12:08:58.908Z,43.77
2018-09-24T12:09:58.897Z,44.17
2018-09-24T12:10:58.886Z,44.37
2018-09-24T12:11:58.898Z,44.07
2018-09-24T12:12:58.862Z,43.60
2018-09-24T12:13:58.873Z,42.65
2018-09-24T12:14:58.848Z,40.94
2018-09-24T12:15:58.829Z,40.80
2018-09-24T12:16:58.832Z,39.49
2018-09-24T12:17:58.848Z,39.47
2018-09-24T12:18:58.807Z,38.85
2018-09-24T12:19:58.784Z,39.00
2018-09-24T12:20:58.773Z,39.61
2018-09-24T12:21:58.779Z,41.44
2018-09-24T12:22:58.761Z,42.65
2018-09-24T12:23:58.785Z,42.77
2018-09-24T12:24:58.732Z,43.07
2018-09-24T12:25:58.718Z,42.47
2018-09-24T12:26:58.727Z,43.19
2018-09-24T12:27:58.693Z,43.90
2018-09-24T12:28:58.703Z,43.90
2018-09-24T12:29:58.676Z,44.01
2018-09-24T12:30:58.660Z,42.75
2018-09-24T12:31:58.649Z,41.22
2018-09-24T12:32:58.653Z,41.22
2018-09-24T12:33:58.628Z,42.65
2018-09-24T12:34:58.616Z,41.79
2018-09-24T12:35:58.635Z,41.16
2018-09-24T12:36:58.595Z,39.45
2018-09-24T12:37:58.598Z,39.34
2018-09-24T12:38:58.571Z,41.09
2018-09-24T12:39:58.564Z,42.11
2018-09-24T12:40:58.552Z,42.55
2018-09-24T12:41:58.543Z,42.67
2018-09-24T12:42:58.543Z,44.16
2018-09-24T12:43:58.525Z,43.79
2018-09-24T12:44:58.504Z,43.80
2018-09-24T12:45:58.496Z,43.80
2018-09-24T12:46:58.486Z,42.33
2018-09-24T12:47:58.522Z,40.88
2018-09-24T12:48:58.460Z,39.65
2018-09-24T12:49:58.458Z,38.72
2018-09-24T12:50:58.439Z,38.31
2018-09-24T12:51:58.435Z,38.29